Aviation Digital Data Service (ADDS)

Output produced by METARs form (1423 UTC 10 July 2020)
found at http://www.aviationweather.gov/metar/data/
 
KVLD 101420Z VRB03KT 10SM BKN020 31/24 A2996 RMK AO2 T03060244
KVLD 101353Z VRB04KT 10SM FEW045 31/24 A2996 RMK AO2 SLP151 T03060244
KVLD 101120Z 1012/1112 VRB04KT P6SM SCT040 
     FM101800 33007KT P6SM VCTS SCT040CB 
     FM102100 VRB04KT P6SM SCT100 
     PROB30 1021/1024 5SM TSRA BKN100CB 
     FM110100 26001KT P6SM FEW200